sensor_id;sensor_type;location;lat;lon;timestamp;temperature;humidity
69084;SHT31;56185;48.526;9.044;2023-06-19T00:00:25;23.91;52.85
69084;SHT31;56185;48.526;9.044;2023-06-19T00:02:51;23.82;52.61
69084;SHT31;56185;48.526;9.044;2023-06-19T00:05:16;23.62;52.93
69084;SHT31;56185;48.526;9.044;2023-06-19T00:07:41;23.51;53.09
69084;SHT31;56185;48.526;9.044;2023-06-19T00:10:06;23.39;53.18
69084;SHT31;56185;48.526;9.044;2023-06-19T00:12:32;23.21;53.87
69084;SHT31;56185;48.526;9.044;2023-06-19T00:14:58;23.06;54.71
69084;SHT31;56185;48.526;9.044;2023-06-19T00:17:23;23.04;53.99
69084;SHT31;56185;48.526;9.044;2023-06-19T00:19:49;22.90;54.63
69084;SHT31;56185;48.526;9.044;2023-06-19T00:22:14;22.89;54.61
69084;SHT31;56185;48.526;9.044;2023-06-19T00:24:40;22.83;54.74
69084;SHT31;56185;48.526;9.044;2023-06-19T00:27:05;22.76;55.29
69084;SHT31;56185;48.526;9.044;2023-06-19T00:29:31;22.99;54.67
69084;SHT31;56185;48.526;9.044;2023-06-19T00:31:57;22.86;54.62
69084;SHT31;56185;48.526;9.044;2023-06-19T00:34:22;22.88;54.44
69084;SHT31;56185;48.526;9.044;2023-06-19T00:36:48;22.69;54.78
69084;SHT31;56185;48.526;9.044;2023-06-19T00:39:13;22.62;55.25
69084;SHT31;56185;48.526;9.044;2023-06-19T00:41:39;22.88;53.76
69084;SHT31;56185;48.526;9.044;2023-06-19T00:44:04;22.92;54.02
69084;SHT31;56185;48.526;9.044;2023-06-19T00:46:30;22.85;53.94
69084;SHT31;56185;48.526;9.044;2023-06-19T00:48:56;22.88;54.11
69084;SHT31;56185;48.526;9.044;2023-06-19T00:51:22;22.85;54.77
69084;SHT31;56185;48.526;9.044;2023-06-19T00:53:47;22.99;54.31
69084;SHT31;56185;48.526;9.044;2023-06-19T00:56:12;22.92;54.10
69084;SHT31;56185;48.526;9.044;2023-06-19T00:58:38;23.09;54.01
69084;SHT31;56185;48.526;9.044;2023-06-19T01:01:03;23.10;54.46
69084;SHT31;56185;48.526;9.044;2023-06-19T01:03:28;23.06;54.93
69084;SHT31;56185;48.526;9.044;2023-06-19T01:05:54;23.09;54.75
69084;SHT31;56185;48.526;9.044;2023-06-19T01:08:49;23.14;54.93
69084;SHT31;56185;48.526;9.044;2023-06-19T01:11:18;23.16;55.01
69084;SHT31;56185;48.526;9.044;2023-06-19T01:13:48;23.31;54.47
69084;SHT31;56185;48.526;9.044;2023-06-19T01:16:16;23.31;54.27
69084;SHT31;56185;48.526;9.044;2023-06-19T01:18:42;23.51;53.42
69084;SHT31;56185;48.526;9.044;2023-06-19T01:21:18;23.57;53.10
69084;SHT31;56185;48.526;9.044;2023-06-19T01:23:43;23.34;54.02
69084;SHT31;56185;48.526;9.044;2023-06-19T01:26:09;23.23;54.59
69084;SHT31;56185;48.526;9.044;2023-06-19T01:28:35;23.06;55.03
69084;SHT31;56185;48.526;9.044;2023-06-19T01:31:02;22.99;55.16
69084;SHT31;56185;48.526;9.044;2023-06-19T01:33:31;22.90;54.55
69084;SHT31;56185;48.526;9.044;2023-06-19T01:35:57;22.76;55.18
69084;SHT31;56185;48.526;9.044;2023-06-19T01:38:24;22.62;55.46
69084;SHT31;56185;48.526;9.044;2023-06-19T01:40:50;22.61;55.37
69084;SHT31;56185;48.526;9.044;2023-06-19T01:43:17;22.52;55.66
69084;SHT31;56185;48.526;9.044;2023-06-19T01:45:43;22.51;55.65
69084;SHT31;56185;48.526;9.044;2023-06-19T01:48:08;22.63;55.43
69084;SHT31;56185;48.526;9.044;2023-06-19T01:50:34;22.66;55.74
69084;SHT31;56185;48.526;9.044;2023-06-19T01:53:00;22.86;55.14
69084;SHT31;56185;48.526;9.044;2023-06-19T01:55:25;22.79;55.11
69084;SHT31;56185;48.526;9.044;2023-06-19T01:57:50;22.75;54.80
69084;SHT31;56185;48.526;9.044;2023-06-19T02:00:16;22.69;54.78
69084;SHT31;56185;48.526;9.044;2023-06-19T02:02:41;22.86;54.31
69084;SHT31;56185;48.526;9.044;2023-06-19T02:05:07;22.76;54.66
69084;SHT31;56185;48.526;9.044;2023-06-19T02:07:32;22.63;55.06
69084;SHT31;56185;48.526;9.044;2023-06-19T02:09:57;22.63;55.19
69084;SHT31;56185;48.526;9.044;2023-06-19T02:12:23;22.66;54.84
69084;SHT31;56185;48.526;9.044;2023-06-19T02:14:48;22.63;55.28
69084;SHT31;56185;48.526;9.044;2023-06-19T02:17:14;22.66;55.20
69084;SHT31;56185;48.526;9.044;2023-06-19T02:19:39;22.61;55.34
69084;SHT31;56185;48.526;9.044;2023-06-19T02:22:05;22.58;55.29
69084;SHT31;56185;48.526;9.044;2023-06-19T02:24:30;22.56;55.85
69084;SHT31;56185;48.526;9.044;2023-06-19T02:26:56;22.55;55.51
69084;SHT31;56185;48.526;9.044;2023-06-19T02:29:21;22.53;55.78
69084;SHT31;56185;48.526;9.044;2023-06-19T02:31:47;22.52;56.08
69084;SHT31;56185;48.526;9.044;2023-06-19T02:34:12;22.47;55.97
69084;SHT31;56185;48.526;9.044;2023-06-19T02:36:37;22.42;56.53
69084;SHT31;56185;48.526;9.044;2023-06-19T02:39:06;22.51;56.71
69084;SHT31;56185;48.526;9.044;2023-06-19T02:41:31;22.45;56.86
69084;SHT31;56185;48.526;9.044;2023-06-19T02:43:56;22.37;57.52
69084;SHT31;56185;48.526;9.044;2023-06-19T02:46:22;22.34;57.11
69084;SHT31;56185;48.526;9.044;2023-06-19T02:48:47;22.30;57.48
69084;SHT31;56185;48.526;9.044;2023-06-19T02:51:12;22.37;57.18
69084;SHT31;56185;48.526;9.044;2023-06-19T02:53:37;22.45;56.75
69084;SHT31;56185;48.526;9.044;2023-06-19T02:56:03;22.55;56.21
69084;SHT31;56185;48.526;9.044;2023-06-19T02:58:28;22.68;55.77
69084;SHT31;56185;48.526;9.044;2023-06-19T03:00:54;22.53;56.70
69084;SHT31;56185;48.526;9.044;2023-06-19T03:03:19;22.56;56.97
69084;SHT31;56185;48.526;9.044;2023-06-19T03:05:44;22.56;56.68
69084;SHT31;56185;48.526;9.044;2023-06-19T03:08:09;22.77;56.15
69084;SHT31;56185;48.526;9.044;2023-06-19T03:10:35;22.83;56.25
69084;SHT31;56185;48.526;9.044;2023-06-19T03:13:00;22.71;56.70
69084;SHT31;56185;48.526;9.044;2023-06-19T03:15:25;22.75;56.40
69084;SHT31;56185;48.526;9.044;2023-06-19T03:17:52;22.83;56.21
69084;SHT31;56185;48.526;9.044;2023-06-19T03:20:18;22.89;55.99
69084;SHT31;56185;48.526;9.044;2023-06-19T03:22:43;22.71;56.39
69084;SHT31;56185;48.526;9.044;2023-06-19T03:25:08;22.72;56.53
69084;SHT31;56185;48.526;9.044;2023-06-19T03:27:34;22.69;56.47
69084;SHT31;56185;48.526;9.044;2023-06-19T03:30:00;22.71;56.38
69084;SHT31;56185;48.526;9.044;2023-06-19T03:32:25;22.73;56.13
69084;SHT31;56185;48.526;9.044;2023-06-19T03:34:50;22.68;56.59
69084;SHT31;56185;48.526;9.044;2023-06-19T03:37:16;22.77;56.26
69084;SHT31;56185;48.526;9.044;2023-06-19T03:39:42;22.75;56.61
69084;SHT31;56185;48.526;9.044;2023-06-19T03:42:07;22.68;56.87
69084;SHT31;56185;48.526;9.044;2023-06-19T03:44:33;22.63;56.88
69084;SHT31;56185;48.526;9.044;2023-06-19T03:46:58;22.61;56.72
69084;SHT31;56185;48.526;9.044;2023-06-19T03:49:23;22.55;56.73
69084;SHT31;56185;48.526;9.044;2023-06-19T03:51:48;22.52;57.49
69084;SHT31;56185;48.526;9.044;2023-06-19T03:54:14;22.49;57.09
69084;SHT31;56185;48.526;9.044;2023-06-19T03:56:39;22.37;58.28
69084;SHT31;56185;48.526;9.044;2023-06-19T03:59:04;22.41;59.03
69084;SHT31;56185;48.526;9.044;2023-06-19T04:01:29;22.41;58.02
69084;SHT31;56185;48.526;9.044;2023-06-19T04:03:55;22.41;60.30
69084;SHT31;56185;48.526;9.044;2023-06-19T04:06:20;22.30;59.79
69084;SHT31;56185;48.526;9.044;2023-06-19T04:08:45;22.35;62.47
69084;SHT31;56185;48.526;9.044;2023-06-19T04:11:10;22.24;61.71
69084;SHT31;56185;48.526;9.044;2023-06-19T04:13:36;22.21;61.95
69084;SHT31;56185;48.526;9.044;2023-06-19T04:16:01;22.04;61.57
69084;SHT31;56185;48.526;9.044;2023-06-19T04:18:26;22.08;61.89
69084;SHT31;56185;48.526;9.044;2023-06-19T04:20:51;22.08;62.46
69084;SHT31;56185;48.526;9.044;2023-06-19T04:23:17;21.92;62.47
69084;SHT31;56185;48.526;9.044;2023-06-19T04:25:42;22.04;61.81
69084;SHT31;56185;48.526;9.044;2023-06-19T04:28:07;22.24;60.80
69084;SHT31;56185;48.526;9.044;2023-06-19T04:30:32;22.10;61.64
69084;SHT31;56185;48.526;9.044;2023-06-19T04:32:58;22.13;61.91
69084;SHT31;56185;48.526;9.044;2023-06-19T04:35:24;22.08;62.14
69084;SHT31;56185;48.526;9.044;2023-06-19T04:37:49;22.08;62.72
69084;SHT31;56185;48.526;9.044;2023-06-19T04:40:14;22.11;62.09
69084;SHT31;56185;48.526;9.044;2023-06-19T04:42:40;22.08;62.09
69084;SHT31;56185;48.526;9.044;2023-06-19T04:45:05;22.20;61.71
69084;SHT31;56185;48.526;9.044;2023-06-19T04:47:31;22.15;61.36
69084;SHT31;56185;48.526;9.044;2023-06-19T04:49:56;22.27;60.90
69084;SHT31;56185;48.526;9.044;2023-06-19T04:52:21;22.28;60.88
69084;SHT31;56185;48.526;9.044;2023-06-19T04:54:46;22.22;60.64
69084;SHT31;56185;48.526;9.044;2023-06-19T04:57:12;22.15;60.94
69084;SHT31;56185;48.526;9.044;2023-06-19T04:59:37;22.25;61.12
69084;SHT31;56185;48.526;9.044;2023-06-19T05:02:02;22.38;60.69
69084;SHT31;56185;48.526;9.044;2023-06-19T05:04:28;22.22;61.33
69084;SHT31;56185;48.526;9.044;2023-06-19T05:06:53;22.10;61.79
69084;SHT31;56185;48.526;9.044;2023-06-19T05:09:18;22.11;61.83
69084;SHT31;56185;48.526;9.044;2023-06-19T05:11:43;21.97;61.89
69084;SHT31;56185;48.526;9.044;2023-06-19T05:14:09;22.11;61.48
69084;SHT31;56185;48.526;9.044;2023-06-19T05:16:34;22.04;61.68
69084;SHT31;56185;48.526;9.044;2023-06-19T05:18:59;22.04;62.03
69084;SHT31;56185;48.526;9.044;2023-06-19T05:21:25;22.03;61.09
69084;SHT31;56185;48.526;9.044;2023-06-19T05:23:50;22.04;61.73
69084;SHT31;56185;48.526;9.044;2023-06-19T05:26:16;22.08;61.46
69084;SHT31;56185;48.526;9.044;2023-06-19T05:28:41;22.08;61.45
69084;SHT31;56185;48.526;9.044;2023-06-19T05:31:07;22.01;62.23
69084;SHT31;56185;48.526;9.044;2023-06-19T05:33:32;22.08;62.09
69084;SHT31;56185;48.526;9.044;2023-06-19T05:35:57;22.15;61.81
69084;SHT31;56185;48.526;9.044;2023-06-19T05:38:22;22.25;62.01
69084;SHT31;56185;48.526;9.044;2023-06-19T05:40:48;22.28;62.21
69084;SHT31;56185;48.526;9.044;2023-06-19T05:43:13;22.25;62.06
69084;SHT31;56185;48.526;9.044;2023-06-19T05:45:41;22.31;61.65
69084;SHT31;56185;48.526;9.044;2023-06-19T05:48:06;22.37;61.61
69084;SHT31;56185;48.526;9.044;2023-06-19T05:50:32;22.38;61.81
69084;SHT31;56185;48.526;9.044;2023-06-19T05:52:57;22.35;61.79
69084;SHT31;56185;48.526;9.044;2023-06-19T05:55:22;22.45;61.95
69084;SHT31;56185;48.526;9.044;2023-06-19T05:57:47;22.35;62.03
69084;SHT31;56185;48.526;9.044;2023-06-19T06:00:13;22.41;61.65
69084;SHT31;56185;48.526;9.044;2023-06-19T06:02:38;22.42;61.95
69084;SHT31;56185;48.526;9.044;2023-06-19T06:05:04;22.45;61.54
69084;SHT31;56185;48.526;9.044;2023-06-19T06:07:29;22.37;62.19
69084;SHT31;56185;48.526;9.044;2023-06-19T06:09:56;22.42;62.03
69084;SHT31;56185;48.526;9.044;2023-06-19T06:12:21;22.38;61.75
69084;SHT31;56185;48.526;9.044;2023-06-19T06:14:46;22.38;62.16
69084;SHT31;56185;48.526;9.044;2023-06-19T06:17:11;22.41;62.34
69084;SHT31;56185;48.526;9.044;2023-06-19T06:19:37;22.41;62.46
69084;SHT31;56185;48.526;9.044;2023-06-19T06:22:02;22.41;62.40
69084;SHT31;56185;48.526;9.044;2023-06-19T06:24:27;22.49;62.11
69084;SHT31;56185;48.526;9.044;2023-06-19T06:26:53;22.38;62.38
69084;SHT31;56185;48.526;9.044;2023-06-19T06:29:18;22.47;61.92
69084;SHT31;56185;48.526;9.044;2023-06-19T06:31:46;22.52;62.17
69084;SHT31;56185;48.526;9.044;2023-06-19T06:34:11;22.45;62.83
69084;SHT31;56185;48.526;9.044;2023-06-19T06:36:36;22.58;62.81
69084;SHT31;56185;48.526;9.044;2023-06-19T06:39:02;22.53;62.59
69084;SHT31;56185;48.526;9.044;2023-06-19T06:41:27;22.56;62.68
69084;SHT31;56185;48.526;9.044;2023-06-19T06:43:52;22.62;62.62
69084;SHT31;56185;48.526;9.044;2023-06-19T06:46:18;22.62;62.25
69084;SHT31;56185;48.526;9.044;2023-06-19T06:48:43;22.53;62.36
69084;SHT31;56185;48.526;9.044;2023-06-19T06:51:08;22.58;62.92
69084;SHT31;56185;48.526;9.044;2023-06-19T06:53:33;22.62;62.33
69084;SHT31;56185;48.526;9.044;2023-06-19T06:55:59;22.66;63.15
69084;SHT31;56185;48.526;9.044;2023-06-19T06:58:24;22.69;62.40
69084;SHT31;56185;48.526;9.044;2023-06-19T07:00:49;22.73;62.25
69084;SHT31;56185;48.526;9.044;2023-06-19T07:03:14;22.75;62.07
69084;SHT31;56185;48.526;9.044;2023-06-19T07:05:40;22.85;61.44
69084;SHT31;56185;48.526;9.044;2023-06-19T07:08:05;22.83;61.49
69084;SHT31;56185;48.526;9.044;2023-06-19T07:10:31;22.82;61.74
69084;SHT31;56185;48.526;9.044;2023-06-19T07:12:56;22.83;61.54
69084;SHT31;56185;48.526;9.044;2023-06-19T07:15:21;22.89;61.57
69084;SHT31;56185;48.526;9.044;2023-06-19T07:17:47;22.93;61.60
69084;SHT31;56185;48.526;9.044;2023-06-19T07:20:13;22.95;61.53
69084;SHT31;56185;48.526;9.044;2023-06-19T07:22:38;22.90;61.63
69084;SHT31;56185;48.526;9.044;2023-06-19T07:25:04;22.92;61.65
69084;SHT31;56185;48.526;9.044;2023-06-19T07:27:29;22.95;62.59
69084;SHT31;56185;48.526;9.044;2023-06-19T07:29:55;23.03;62.19
69084;SHT31;56185;48.526;9.044;2023-06-19T07:32:20;23.12;61.13
69084;SHT31;56185;48.526;9.044;2023-06-19T07:34:45;23.36;60.56
69084;SHT31;56185;48.526;9.044;2023-06-19T07:37:10;23.44;60.17
69084;SHT31;56185;48.526;9.044;2023-06-19T07:39:36;23.57;60.54
69084;SHT31;56185;48.526;9.044;2023-06-19T07:42:01;23.64;59.77
69084;SHT31;56185;48.526;9.044;2023-06-19T07:44:26;23.81;58.73
69084;SHT31;56185;48.526;9.044;2023-06-19T07:46:51;23.89;58.57
69084;SHT31;56185;48.526;9.044;2023-06-19T07:49:17;23.97;58.35
69084;SHT31;56185;48.526;9.044;2023-06-19T07:51:42;23.95;58.36
69084;SHT31;56185;48.526;9.044;2023-06-19T07:54:07;23.94;57.82
69084;SHT31;56185;48.526;9.044;2023-06-19T07:56:32;23.97;58.53
69084;SHT31;56185;48.526;9.044;2023-06-19T07:58:58;24.05;58.04
69084;SHT31;56185;48.526;9.044;2023-06-19T08:01:23;24.05;58.67
69084;SHT31;56185;48.526;9.044;2023-06-19T08:03:48;24.13;58.83
69084;SHT31;56185;48.526;9.044;2023-06-19T08:06:13;24.30;58.05
69084;SHT31;56185;48.526;9.044;2023-06-19T08:08:39;24.36;57.36
69084;SHT31;56185;48.526;9.044;2023-06-19T08:11:04;24.41;56.97
69084;SHT31;56185;48.526;9.044;2023-06-19T08:13:29;24.57;56.36
69084;SHT31;56185;48.526;9.044;2023-06-19T08:15:54;24.49;55.59
69084;SHT31;56185;48.526;9.044;2023-06-19T08:18:20;24.56;55.73
69084;SHT31;56185;48.526;9.044;2023-06-19T08:20:45;24.61;55.97
69084;SHT31;56185;48.526;9.044;2023-06-19T08:23:10;24.63;56.05
69084;SHT31;56185;48.526;9.044;2023-06-19T08:25:35;24.80;55.07
69084;SHT31;56185;48.526;9.044;2023-06-19T08:28:01;24.78;55.35
69084;SHT31;56185;48.526;9.044;2023-06-19T08:30:26;24.86;54.78
69084;SHT31;56185;48.526;9.044;2023-06-19T08:32:51;24.97;54.80
69084;SHT31;56185;48.526;9.044;2023-06-19T08:35:16;24.98;54.24
69084;SHT31;56185;48.526;9.044;2023-06-19T08:37:41;24.97;54.24
69084;SHT31;56185;48.526;9.044;2023-06-19T08:40:07;25.18;54.44
69084;SHT31;56185;48.526;9.044;2023-06-19T08:42:32;25.28;53.41
69084;SHT31;56185;48.526;9.044;2023-06-19T08:44:58;25.52;53.85
69084;SHT31;56185;48.526;9.044;2023-06-19T08:47:29;25.70;53.27
69084;SHT31;56185;48.526;9.044;2023-06-19T08:49:54;25.87;51.44
69084;SHT31;56185;48.526;9.044;2023-06-19T08:52:19;25.86;49.65
69084;SHT31;56185;48.526;9.044;2023-06-19T08:54:44;25.87;48.30
69084;SHT31;56185;48.526;9.044;2023-06-19T08:57:10;25.85;47.89
69084;SHT31;56185;48.526;9.044;2023-06-19T08:59:35;25.80;47.50
69084;SHT31;56185;48.526;9.044;2023-06-19T09:02:01;25.79;48.38
69084;SHT31;56185;48.526;9.044;2023-06-19T09:04:27;26.00;48.55
69084;SHT31;56185;48.526;9.044;2023-06-19T09:06:56;26.03;49.02
69084;SHT31;56185;48.526;9.044;2023-06-19T09:09:23;26.13;48.40
69084;SHT31;56185;48.526;9.044;2023-06-19T09:12:08;26.28;47.29
69084;SHT31;56185;48.526;9.044;2023-06-19T09:14:44;26.14;46.96
69084;SHT31;56185;48.526;9.044;2023-06-19T09:17:12;26.16;48.07
69084;SHT31;56185;48.526;9.044;2023-06-19T09:19:38;26.21;48.05
69084;SHT31;56185;48.526;9.044;2023-06-19T09:22:05;26.31;47.75
69084;SHT31;56185;48.526;9.044;2023-06-19T09:24:38;26.44;47.63
69084;SHT31;56185;48.526;9.044;2023-06-19T09:27:15;26.52;47.67
69084;SHT31;56185;48.526;9.044;2023-06-19T09:29:41;26.65;47.54
69084;SHT31;56185;48.526;9.044;2023-06-19T09:32:20;26.81;46.76
69084;SHT31;56185;48.526;9.044;2023-06-19T09:34:46;26.72;46.09
69084;SHT31;56185;48.526;9.044;2023-06-19T09:37:12;26.67;46.59
69084;SHT31;56185;48.526;9.044;2023-06-19T09:39:38;26.74;46.62
69084;SHT31;56185;48.526;9.044;2023-06-19T09:42:06;26.76;46.91
69084;SHT31;56185;48.526;9.044;2023-06-19T09:44:39;26.79;46.70
69084;SHT31;56185;48.526;9.044;2023-06-19T09:47:12;26.88;46.79
69084;SHT31;56185;48.526;9.044;2023-06-19T09:49:39;27.06;46.87
69084;SHT31;56185;48.526;9.044;2023-06-19T09:52:05;26.92;45.87
69084;SHT31;56185;48.526;9.044;2023-06-19T09:54:30;27.09;46.46
69084;SHT31;56185;48.526;9.044;2023-06-19T09:56:57;27.16;46.19
69084;SHT31;56185;48.526;9.044;2023-06-19T09:59:23;27.10;45.05
69084;SHT31;56185;48.526;9.044;2023-06-19T10:01:48;27.22;45.21
69084;SHT31;56185;48.526;9.044;2023-06-19T10:04:14;27.29;45.58
69084;SHT31;56185;48.526;9.044;2023-06-19T10:06:46;27.43;44.85
69084;SHT31;56185;48.526;9.044;2023-06-19T10:09:14;27.27;44.81
69084;SHT31;56185;48.526;9.044;2023-06-19T10:11:50;27.40;46.32
69084;SHT31;56185;48.526;9.044;2023-06-19T10:14:16;27.55;45.28
69084;SHT31;56185;48.526;9.044;2023-06-19T10:16:42;27.46;44.78
69084;SHT31;56185;48.526;9.044;2023-06-19T10:19:17;27.60;44.41
69084;SHT31;56185;48.526;9.044;2023-06-19T10:24:14;27.68;43.99
69084;SHT31;56185;48.526;9.044;2023-06-19T10:26:39;27.63;44.43
69084;SHT31;56185;48.526;9.044;2023-06-19T10:29:25;27.71;44.45
69084;SHT31;56185;48.526;9.044;2023-06-19T10:31:51;27.82;44.54
69084;SHT31;56185;48.526;9.044;2023-06-19T10:34:16;27.82;44.00
69084;SHT31;56185;48.526;9.044;2023-06-19T10:36:42;27.98;44.37
69084;SHT31;56185;48.526;9.044;2023-06-19T10:39:08;28.05;44.41
69084;SHT31;56185;48.526;9.044;2023-06-19T10:41:33;28.12;43.45
69084;SHT31;56185;48.526;9.044;2023-06-19T10:44:06;28.18;42.24
69084;SHT31;56185;48.526;9.044;2023-06-19T10:46:35;28.29;43.44
69084;SHT31;56185;48.526;9.044;2023-06-19T10:49:02;28.48;42.90
69084;SHT31;56185;48.526;9.044;2023-06-19T10:51:27;28.49;41.97
69084;SHT31;56185;48.526;9.044;2023-06-19T10:53:54;28.52;41.95
69084;SHT31;56185;48.526;9.044;2023-06-19T10:56:20;28.46;41.94
69084;SHT31;56185;48.526;9.044;2023-06-19T10:58:46;28.50;41.31
69084;SHT31;56185;48.526;9.044;2023-06-19T11:01:11;28.53;42.13
69084;SHT31;56185;48.526;9.044;2023-06-19T11:03:37;28.62;40.81
69084;SHT31;56185;48.526;9.044;2023-06-19T11:06:02;28.63;40.02
69084;SHT31;56185;48.526;9.044;2023-06-19T11:08:28;28.70;40.57
69084;SHT31;56185;48.526;9.044;2023-06-19T11:10:53;28.79;41.00
69084;SHT31;56185;48.526;9.044;2023-06-19T11:13:20;28.94;40.84
69084;SHT31;56185;48.526;9.044;2023-06-19T11:15:48;28.91;39.76
69084;SHT31;56185;48.526;9.044;2023-06-19T11:18:15;28.80;39.83
69084;SHT31;56185;48.526;9.044;2023-06-19T11:20:49;28.79;39.72
69084;SHT31;56185;48.526;9.044;2023-06-19T11:23:16;28.66;39.57
69084;SHT31;56185;48.526;9.044;2023-06-19T11:25:42;28.67;40.33
69084;SHT31;56185;48.526;9.044;2023-06-19T11:28:14;28.73;39.35
69084;SHT31;56185;48.526;9.044;2023-06-19T11:30:40;28.79;39.03
69084;SHT31;56185;48.526;9.044;2023-06-19T11:33:22;28.81;38.31
69084;SHT31;56185;48.526;9.044;2023-06-19T11:35:51;28.94;38.28
69084;SHT31;56185;48.526;9.044;2023-06-19T11:38:20;29.01;38.51
69084;SHT31;56185;48.526;9.044;2023-06-19T11:40:46;29.18;38.49
69084;SHT31;56185;48.526;9.044;2023-06-19T11:43:12;29.31;38.19
69084;SHT31;56185;48.526;9.044;2023-06-19T11:45:49;29.42;38.71
69084;SHT31;56185;48.526;9.044;2023-06-19T11:48:22;29.49;38.08
69084;SHT31;56185;48.526;9.044;2023-06-19T11:50:47;29.48;37.50
69084;SHT31;56185;48.526;9.044;2023-06-19T11:53:13;29.58;37.90
69084;SHT31;56185;48.526;9.044;2023-06-19T11:55:38;29.73;37.82
69084;SHT31;56185;48.526;9.044;2023-06-19T11:58:03;29.75;36.97
69084;SHT31;56185;48.526;9.044;2023-06-19T12:00:28;29.82;36.88
69084;SHT31;56185;48.526;9.044;2023-06-19T12:02:53;29.93;36.47
69084;SHT31;56185;48.526;9.044;2023-06-19T12:05:19;30.02;37.17
69084;SHT31;56185;48.526;9.044;2023-06-19T12:07:44;30.05;37.64
69084;SHT31;56185;48.526;9.044;2023-06-19T12:10:10;30.02;37.15
69084;SHT31;56185;48.526;9.044;2023-06-19T12:12:36;30.27;37.52
69084;SHT31;56185;48.526;9.044;2023-06-19T12:15:01;30.33;36.42
69084;SHT31;56185;48.526;9.044;2023-06-19T12:17:27;30.45;35.87
69084;SHT31;56185;48.526;9.044;2023-06-19T12:19:52;30.49;36.18
69084;SHT31;56185;48.526;9.044;2023-06-19T12:22:17;30.43;36.26
69084;SHT31;56185;48.526;9.044;2023-06-19T12:24:42;30.17;36.78
69084;SHT31;56185;48.526;9.044;2023-06-19T12:27:07;29.96;37.06
69084;SHT31;56185;48.526;9.044;2023-06-19T12:29:33;30.10;37.03
69084;SHT31;56185;48.526;9.044;2023-06-19T12:32:00;30.16;37.39
69084;SHT31;56185;48.526;9.044;2023-06-19T12:34:25;30.05;36.74
69084;SHT31;56185;48.526;9.044;2023-06-19T12:36:51;30.19;36.96
69084;SHT31;56185;48.526;9.044;2023-06-19T12:39:16;30.33;36.61
69084;SHT31;56185;48.526;9.044;2023-06-19T12:41:41;30.45;36.81
69084;SHT31;56185;48.526;9.044;2023-06-19T12:44:06;30.53;36.56
69084;SHT31;56185;48.526;9.044;2023-06-19T12:46:32;30.68;36.24
69084;SHT31;56185;48.526;9.044;2023-06-19T12:48:57;30.75;35.65
69084;SHT31;56185;48.526;9.044;2023-06-19T12:51:22;30.71;35.21
69084;SHT31;56185;48.526;9.044;2023-06-19T12:53:47;30.78;35.25
69084;SHT31;56185;48.526;9.044;2023-06-19T12:56:13;30.86;35.71
69084;SHT31;56185;48.526;9.044;2023-06-19T12:58:38;31.03;35.10
69084;SHT31;56185;48.526;9.044;2023-06-19T13:01:03;31.09;34.24
69084;SHT31;56185;48.526;9.044;2023-06-19T13:03:28;31.15;34.14
69084;SHT31;56185;48.526;9.044;2023-06-19T13:05:54;31.15;34.16
69084;SHT31;56185;48.526;9.044;2023-06-19T13:08:19;31.16;33.33
69084;SHT31;56185;48.526;9.044;2023-06-19T13:10:44;31.27;33.31
69084;SHT31;56185;48.526;9.044;2023-06-19T13:13:09;31.26;34.24
69084;SHT31;56185;48.526;9.044;2023-06-19T13:15:35;31.26;33.34
69084;SHT31;56185;48.526;9.044;2023-06-19T13:18:00;31.25;32.57
69084;SHT31;56185;48.526;9.044;2023-06-19T13:20:28;31.32;33.29
69084;SHT31;56185;48.526;9.044;2023-06-19T13:22:53;31.33;33.36
69084;SHT31;56185;48.526;9.044;2023-06-19T13:25:19;31.36;33.27
69084;SHT31;56185;48.526;9.044;2023-06-19T13:27:44;31.43;32.97
69084;SHT31;56185;48.526;9.044;2023-06-19T13:30:10;31.43;33.24
69084;SHT31;56185;48.526;9.044;2023-06-19T13:32:35;31.39;33.23
69084;SHT31;56185;48.526;9.044;2023-06-19T13:35:01;31.43;32.94
69084;SHT31;56185;48.526;9.044;2023-06-19T13:37:26;31.27;33.13
69084;SHT31;56185;48.526;9.044;2023-06-19T13:39:51;31.32;33.90
69084;SHT31;56185;48.526;9.044;2023-06-19T13:42:16;31.30;33.27
69084;SHT31;56185;48.526;9.044;2023-06-19T13:44:42;31.35;33.04
69084;SHT31;56185;48.526;9.044;2023-06-19T13:47:07;31.16;33.07
69084;SHT31;56185;48.526;9.044;2023-06-19T13:49:32;31.36;33.57
69084;SHT31;56185;48.526;9.044;2023-06-19T13:51:57;31.37;33.49
69084;SHT31;56185;48.526;9.044;2023-06-19T13:54:23;31.51;33.00
69084;SHT31;56185;48.526;9.044;2023-06-19T13:56:48;31.43;33.58
69084;SHT31;56185;48.526;9.044;2023-06-19T13:59:14;31.59;33.25
69084;SHT31;56185;48.526;9.044;2023-06-19T14:01:40;31.60;32.85
69084;SHT31;56185;48.526;9.044;2023-06-19T14:04:05;31.67;32.27
69084;SHT31;56185;48.526;9.044;2023-06-19T14:06:30;31.74;32.25
69084;SHT31;56185;48.526;9.044;2023-06-19T14:08:55;31.77;33.10
69084;SHT31;56185;48.526;9.044;2023-06-19T14:11:21;31.59;32.93
69084;SHT31;56185;48.526;9.044;2023-06-19T14:13:46;31.84;32.58
69084;SHT31;56185;48.526;9.044;2023-06-19T14:16:11;31.95;32.73
69084;SHT31;56185;48.526;9.044;2023-06-19T14:18:37;31.91;32.91
69084;SHT31;56185;48.526;9.044;2023-06-19T14:21:02;31.90;32.78
69084;SHT31;56185;48.526;9.044;2023-06-19T14:23:27;31.94;32.14
69084;SHT31;56185;48.526;9.044;2023-06-19T14:25:52;31.85;32.83
69084;SHT31;56185;48.526;9.044;2023-06-19T14:28:17;31.81;32.64
69084;SHT31;56185;48.526;9.044;2023-06-19T14:30:43;31.70;32.49
69084;SHT31;56185;48.526;9.044;2023-06-19T14:33:08;31.69;32.71
69084;SHT31;56185;48.526;9.044;2023-06-19T14:35:33;31.70;33.05
69084;SHT31;56185;48.526;9.044;2023-06-19T14:37:58;31.66;33.34
69084;SHT31;56185;48.526;9.044;2023-06-19T14:40:24;31.54;33.74
69084;SHT31;56185;48.526;9.044;2023-06-19T14:42:49;31.40;33.59
69084;SHT31;56185;48.526;9.044;2023-06-19T14:45:14;31.43;34.10
69084;SHT31;56185;48.526;9.044;2023-06-19T14:47:40;31.40;34.31
69084;SHT31;56185;48.526;9.044;2023-06-19T14:50:05;31.37;34.25
69084;SHT31;56185;48.526;9.044;2023-06-19T14:52:31;31.37;33.65
69084;SHT31;56185;48.526;9.044;2023-06-19T14:54:56;31.27;34.34
69084;SHT31;56185;48.526;9.044;2023-06-19T14:57:21;31.35;34.50
69084;SHT31;56185;48.526;9.044;2023-06-19T14:59:47;31.50;33.77
69084;SHT31;56185;48.526;9.044;2023-06-19T15:02:12;31.49;33.66
69084;SHT31;56185;48.526;9.044;2023-06-19T15:04:37;31.40;33.32
69084;SHT31;56185;48.526;9.044;2023-06-19T15:07:02;31.32;33.18
69084;SHT31;56185;48.526;9.044;2023-06-19T15:09:27;31.29;33.49
69084;SHT31;56185;48.526;9.044;2023-06-19T15:11:53;31.29;33.54
69084;SHT31;56185;48.526;9.044;2023-06-19T15:14:18;31.09;32.75
69084;SHT31;56185;48.526;9.044;2023-06-19T15:16:44;31.06;33.49
69084;SHT31;56185;48.526;9.044;2023-06-19T15:19:09;31.02;35.04
69084;SHT31;56185;48.526;9.044;2023-06-19T15:21:35;30.88;36.08
69084;SHT31;56185;48.526;9.044;2023-06-19T15:24:00;30.88;38.83